Linden, TN

11:51 AM CST on March 01, 2015 (GMT -0600)
McKellar-Sipes Regional | Change Station
CLOSE
Current Station
Airport
Location: Jackson,
Elevation: 433 ft
Nearby Weather Stations

Elev 433 ft 35.59 °N, 88.92 °W | Updated 8 minutes ago

Rain
Rain
44 °F
Feels Like 44 °F
N
0
Wind Variable Wind from North

Today
High -- | Low -- °F
--% Chance of Precip.
Yesterday
High -- | Low -- °F
Precip. -- in
6:21 AM 5:46 PM
Waxing Gibbous, 86% visible
Pressure 30.36 in
Visibility 3.0 miles
Clouds Overcast 300 ft
Dew Point 42 °F
Humidity 93%
Rainfall 0.41 in
Snow Depth Not available.
UV 2 out of 12
Pollen 4.10 out of 12
Air Quality Not available.
Flu Activity Not available.
SPECI KMKL 011743Z 00000KT 3SM BR OVC003 07/06 A3036 RMK AO2 RAB30E41 P0000 T00670056

More Conditions Fewer Conditions

Pressure 30.36 in
Visibility 3.0 miles
Clouds Overcast 300 ft
Dew Point 42 °F
Humidity 93%
Rainfall 0.41 in
Snow Depth Not available.
UV 2 out of 12
Pollen 4.10 out of 12
Air Quality Not available.
Flu Activity Not available.
SPECI KMKL 011743Z 00000KT 3SM BR OVC003 07/06 A3036 RMK AO2 RAB30E41 P0000 T00670056

More Conditions Fewer Conditions

10-Day Weather Forecast

Almanac

Astronomy

Mar. 01, 2015 Rise Set
Actual Time
Civil Twilight
Nautical Twilight
Astronomical Twilight
Moon
Length of Visible Light
Length of Day
Tomorrow will be .
, % of the Moon is Illuminated

Today's Extremes

State Highs State Lows

Community

WunderPhotos

Upload Photos

1,801,483 photos uploaded!

WunderBlogs® & News

Nearby

Air Quality

  Air Quality AQ Index Pollutant
Not available.

Snow Depth

Station Depth Elevation

Earthquake Activity

City Distance Mag. Time & Date
Minimum magnitude displayed is 2.5.

Coastal Water Temperatures

Place Temperature

Nearby Weather Stations